createdAt,value
2019-03-21T00:00:06.393Z,33.61
2019-03-21T00:01:06.395Z,33.71
2019-03-21T00:02:06.380Z,34.11
2019-03-21T00:03:06.373Z,33.71
2019-03-21T00:04:06.531Z,33.70
2019-03-21T00:05:06.338Z,33.70
2019-03-21T00:06:06.338Z,33.80
2019-03-21T00:07:06.315Z,33.61
2019-03-21T00:08:06.306Z,33.61
2019-03-21T00:09:06.317Z,33.81
2019-03-21T00:10:06.281Z,33.61
2019-03-21T00:11:06.287Z,33.61
2019-03-21T00:12:06.260Z,33.81
2019-03-21T00:13:06.256Z,33.80
2019-03-21T00:14:07.294Z,33.61
2019-03-21T00:15:06.232Z,33.81
2019-03-21T00:16:07.034Z,34.11
2019-03-21T00:17:06.203Z,34.01
2019-03-21T00:18:06.194Z,34.21
2019-03-21T00:19:06.538Z,33.81
2019-03-21T00:20:06.183Z,33.81
2019-03-21T00:21:06.166Z,33.51
2019-03-21T00:22:06.150Z,34.01
2019-03-21T00:23:06.135Z,34.11
2019-03-21T00:24:06.540Z,33.51
2019-03-21T00:25:06.132Z,33.81
2019-03-21T00:26:06.103Z,34.01
2019-03-21T00:27:07.031Z,34.01
2019-03-21T00:28:06.083Z,33.81
2019-03-21T00:29:06.098Z,33.81
2019-03-21T00:30:06.065Z,33.81
2019-03-21T00:31:06.050Z,34.11
2019-03-21T00:32:06.054Z,33.81
2019-03-21T00:33:06.027Z,34.21
2019-03-21T00:34:06.530Z,33.21
2019-03-21T00:35:06.005Z,33.71
2019-03-21T00:36:05.994Z,34.01
2019-03-21T00:37:06.003Z,33.71
2019-03-21T00:38:05.972Z,33.51
2019-03-21T00:39:05.964Z,33.21
2019-03-21T00:40:05.958Z,33.71
2019-03-21T00:41:06.518Z,33.81
2019-03-21T00:42:05.968Z,33.71
2019-03-21T00:43:05.919Z,33.71
2019-03-21T00:44:05.919Z,33.61
2019-03-21T00:45:05.902Z,33.71
2019-03-21T00:46:05.886Z,33.51
2019-03-21T00:47:06.535Z,33.71
2019-03-21T00:48:05.883Z,33.51
2019-03-21T00:49:06.518Z,33.71
2019-03-21T00:50:05.852Z,33.51
2019-03-21T00:51:06.535Z,33.31
2019-03-21T00:52:05.845Z,33.51
2019-03-21T00:53:06.535Z,33.51
2019-03-21T00:54:05.794Z,33.81
2019-03-21T00:55:05.816Z,33.71
2019-03-21T00:56:05.774Z,33.51
2019-03-21T00:57:05.774Z,33.21
2019-03-21T00:58:05.759Z,33.71
2019-03-21T00:59:05.745Z,33.71
2019-03-21T01:00:06.034Z,33.71
2019-03-21T01:01:05.717Z,33.71
2019-03-21T01:02:05.720Z,33.71
2019-03-21T01:03:06.520Z,33.01
2019-03-21T01:04:05.685Z,34.21
2019-03-21T01:05:06.077Z,33.71
2019-03-21T01:06:05.665Z,34.31
2019-03-21T01:07:05.664Z,33.71
2019-03-21T01:08:06.521Z,33.71
2019-03-21T01:09:05.629Z,33.61
2019-03-21T01:10:05.640Z,33.01
2019-03-21T01:11:05.608Z,34.21
2019-03-21T01:12:06.539Z,33.61
2019-03-21T01:13:06.527Z,33.51
2019-03-21T01:14:05.574Z,33.01
2019-03-21T01:15:05.580Z,33.51
2019-03-21T01:16:06.042Z,33.01
2019-03-21T01:17:05.554Z,32.81
2019-03-21T01:18:06.521Z,33.01
2019-03-21T01:19:05.517Z,34.21
2019-03-21T01:20:06.034Z,33.51
2019-03-21T01:21:05.505Z,33.91
2019-03-21T01:22:05.511Z,33.91
2019-03-21T01:23:05.476Z,33.11
2019-03-21T01:24:05.470Z,33.31
2019-03-21T01:25:05.453Z,32.81
2019-03-21T01:26:05.451Z,32.81
2019-03-21T01:27:05.457Z,33.11
2019-03-21T01:28:05.432Z,33.11
2019-03-21T01:29:05.409Z,33.11
2019-03-21T01:30:05.395Z,33.01
2019-03-21T01:31:05.396Z,33.01
2019-03-21T01:32:06.040Z,32.91
2019-03-21T01:33:05.368Z,33.01
2019-03-21T01:34:05.355Z,33.01
2019-03-21T01:35:06.026Z,33.01
2019-03-21T01:36:05.342Z,32.91
2019-03-21T01:37:06.031Z,33.11
2019-03-21T01:38:06.037Z,33.11
2019-03-21T01:39:05.307Z,33.01
2019-03-21T01:40:06.027Z,33.01
2019-03-21T01:41:05.286Z,33.01
2019-03-21T01:42:05.272Z,33.11
2019-03-21T01:43:05.252Z,32.91
2019-03-21T01:44:05.247Z,33.01
2019-03-21T01:45:06.023Z,34.11
2019-03-21T01:46:05.274Z,33.01
2019-03-21T01:47:05.210Z,33.31
2019-03-21T01:48:05.198Z,34.31
2019-03-21T01:49:06.024Z,33.01
2019-03-21T01:50:05.179Z,32.81
2019-03-21T01:51:05.197Z,34.01
2019-03-21T01:52:06.026Z,33.21
2019-03-21T01:53:05.142Z,34.11
2019-03-21T01:54:05.134Z,33.12
2019-03-21T01:55:05.125Z,33.11
2019-03-21T01:56:05.137Z,33.11
2019-03-21T01:57:06.040Z,32.81
2019-03-21T01:58:06.030Z,33.31
2019-03-21T01:59:05.077Z,33.01
2019-03-21T02:00:05.064Z,33.11
2019-03-21T02:01:05.066Z,33.03
2019-03-21T02:02:06.040Z,34.01
2019-03-21T02:03:05.039Z,33.71
2019-03-21T02:04:05.019Z,33.31
2019-03-21T02:05:05.036Z,33.11
2019-03-21T02:06:05.000Z,34.01
2019-03-21T02:07:05.048Z,33.41
2019-03-21T02:08:04.976Z,33.01
2019-03-21T02:09:04.968Z,34.01
2019-03-21T02:10:04.955Z,33.01
2019-03-21T02:11:04.944Z,33.91
2019-03-21T02:12:05.053Z,33.33
2019-03-21T02:13:04.942Z,33.71
2019-03-21T02:14:04.911Z,33.31
2019-03-21T02:15:04.901Z,33.01
2019-03-21T02:16:05.526Z,33.21
2019-03-21T02:17:05.050Z,33.21
2019-03-21T02:18:04.896Z,33.01
2019-03-21T02:19:04.861Z,33.03
2019-03-21T02:20:04.840Z,33.01
2019-03-21T02:21:04.833Z,33.01
2019-03-21T02:22:04.846Z,33.01
2019-03-21T02:23:05.540Z,33.11
2019-03-21T02:24:05.528Z,33.01
2019-03-21T02:25:04.791Z,33.31
2019-03-21T02:26:04.779Z,32.91
2019-03-21T02:27:05.049Z,33.41
2019-03-21T02:28:04.757Z,32.91
2019-03-21T02:29:04.746Z,32.81
2019-03-21T02:30:05.532Z,32.91
2019-03-21T02:31:04.737Z,33.43
2019-03-21T02:32:04.730Z,32.93
2019-03-21T02:33:04.703Z,32.91
2019-03-21T02:34:04.691Z,32.91
2019-03-21T02:35:04.684Z,32.91
2019-03-21T02:36:04.694Z,32.81
2019-03-21T02:37:04.677Z,33.11
2019-03-21T02:38:04.650Z,33.11
2019-03-21T02:39:04.643Z,33.01
2019-03-21T02:40:04.637Z,33.41
2019-03-21T02:41:04.623Z,33.01
2019-03-21T02:42:04.608Z,32.81
2019-03-21T02:43:04.607Z,33.11
2019-03-21T02:44:05.530Z,33.01
2019-03-21T02:45:08.962Z,33.41
2019-03-21T02:46:04.557Z,33.62
2019-03-21T02:47:04.587Z,33.11
2019-03-21T02:48:04.563Z,33.12
2019-03-21T02:49:05.027Z,32.82
2019-03-21T02:50:04.518Z,33.62
2019-03-21T02:51:04.506Z,33.11
2019-03-21T02:52:04.514Z,33.01
2019-03-21T02:53:05.041Z,33.61
2019-03-21T02:54:04.480Z,33.41
2019-03-21T02:55:04.461Z,33.01
2019-03-21T02:56:04.492Z,33.51
2019-03-21T02:57:04.451Z,33.01
2019-03-21T02:58:04.435Z,33.81
2019-03-21T02:59:05.038Z,33.11
2019-03-21T03:00:05.036Z,33.61
2019-03-21T03:01:05.029Z,33.41
2019-03-21T03:02:04.390Z,33.41
2019-03-21T03:03:04.388Z,33.11
2019-03-21T03:04:04.360Z,33.12
2019-03-21T03:05:04.348Z,33.11
2019-03-21T03:06:05.030Z,33.21
2019-03-21T03:07:04.345Z,33.11
2019-03-21T03:08:04.333Z,33.11
2019-03-21T03:09:04.305Z,33.12
2019-03-21T03:10:04.293Z,33.71
2019-03-21T03:11:05.033Z,33.11
2019-03-21T03:12:04.285Z,33.51
2019-03-21T03:13:05.033Z,33.11
2019-03-21T03:14:04.742Z,33.01
2019-03-21T03:15:04.235Z,33.12
2019-03-21T03:16:04.225Z,33.11
2019-03-21T03:17:04.287Z,33.12
2019-03-21T03:18:05.028Z,33.41
2019-03-21T03:19:04.193Z,33.12
2019-03-21T03:20:04.195Z,33.41
2019-03-21T03:21:04.175Z,34.12
2019-03-21T03:22:04.179Z,33.33
2019-03-21T03:23:04.182Z,33.01
2019-03-21T03:24:04.138Z,33.11
2019-03-21T03:25:04.136Z,33.43
2019-03-21T03:26:04.121Z,33.41
2019-03-21T03:27:04.121Z,33.41
2019-03-21T03:28:04.568Z,33.12
2019-03-21T03:29:04.081Z,33.91
2019-03-21T03:30:04.090Z,33.12
2019-03-21T03:31:04.057Z,33.21
2019-03-21T03:32:04.051Z,33.01
2019-03-21T03:33:04.585Z,33.01
2019-03-21T03:34:04.071Z,34.01
2019-03-21T03:35:04.016Z,34.12
2019-03-21T03:36:04.005Z,34.01
2019-03-21T03:37:03.996Z,33.03
2019-03-21T03:38:04.016Z,33.41
2019-03-21T03:39:03.996Z,33.61
2019-03-21T03:40:04.531Z,33.43
2019-03-21T03:41:03.951Z,33.41
2019-03-21T03:42:03.939Z,34.03
2019-03-21T03:43:03.969Z,33.73
2019-03-21T03:44:03.921Z,34.03
2019-03-21T03:45:03.911Z,34.03
2019-03-21T03:46:03.900Z,34.03
2019-03-21T03:47:03.882Z,33.62
2019-03-21T03:48:03.921Z,34.03
2019-03-21T03:49:03.875Z,34.03
2019-03-21T03:50:04.533Z,33.41
2019-03-21T03:51:03.847Z,33.43
2019-03-21T03:52:03.826Z,33.73
2019-03-21T03:53:03.839Z,33.43
2019-03-21T03:54:03.808Z,33.43
2019-03-21T03:55:04.546Z,33.12
2019-03-21T03:56:03.787Z,34.03
2019-03-21T03:57:03.777Z,34.03
2019-03-21T03:58:04.067Z,33.41
2019-03-21T03:59:04.542Z,34.12
2019-03-21T04:00:04.534Z,33.53
2019-03-21T04:01:03.739Z,33.83
2019-03-21T04:02:04.552Z,33.93
2019-03-21T04:03:04.075Z,33.61
2019-03-21T04:04:03.694Z,33.62
2019-03-21T04:05:03.698Z,34.03
2019-03-21T04:06:03.672Z,33.73
2019-03-21T04:07:03.665Z,34.03
2019-03-21T04:08:03.676Z,33.41
2019-03-21T04:09:03.650Z,33.43
2019-03-21T04:10:04.545Z,34.03
2019-03-21T04:11:03.619Z,34.03
2019-03-21T04:12:03.621Z,33.62
2019-03-21T04:13:03.620Z,33.62
2019-03-21T04:14:03.619Z,33.62
2019-03-21T04:15:03.576Z,33.73
2019-03-21T04:16:03.583Z,34.01
2019-03-21T04:17:03.556Z,33.53
2019-03-21T04:18:03.579Z,33.12
2019-03-21T04:19:03.532Z,33.43
2019-03-21T04:20:04.044Z,33.53
2019-03-21T04:21:03.526Z,33.23
2019-03-21T04:22:03.537Z,33.03
2019-03-21T04:23:03.526Z,33.23
2019-03-21T04:24:04.038Z,33.73
2019-03-21T04:25:03.465Z,33.43
2019-03-21T04:26:04.039Z,33.93
2019-03-21T04:27:03.445Z,33.23
2019-03-21T04:28:03.468Z,33.12
2019-03-21T04:29:03.420Z,34.01
2019-03-21T04:30:03.408Z,34.03
2019-03-21T04:31:03.399Z,33.43
2019-03-21T04:32:03.382Z,33.33
2019-03-21T04:33:03.581Z,33.23
2019-03-21T04:34:03.386Z,33.93
2019-03-21T04:35:03.353Z,33.73
2019-03-21T04:36:03.344Z,33.61
2019-03-21T04:37:03.344Z,33.93
2019-03-21T04:38:03.370Z,33.62
2019-03-21T04:39:04.059Z,34.03
2019-03-21T04:40:04.038Z,33.73
2019-03-21T04:41:04.049Z,33.73
2019-03-21T04:42:04.043Z,33.93
2019-03-21T04:43:03.278Z,33.73
2019-03-21T04:44:04.047Z,34.03
2019-03-21T04:45:03.245Z,33.62
2019-03-21T04:46:03.998Z,33.73
2019-03-21T04:47:04.047Z,33.93
2019-03-21T04:48:03.235Z,34.03
2019-03-21T04:49:03.213Z,33.33
2019-03-21T04:50:03.190Z,33.23
2019-03-21T04:51:03.177Z,33.73
2019-03-21T04:52:03.164Z,34.03
2019-03-21T04:53:03.550Z,34.03
2019-03-21T04:54:04.046Z,33.23
2019-03-21T04:55:03.134Z,33.23
2019-03-21T04:56:03.122Z,33.23
2019-03-21T04:57:04.038Z,33.62
2019-03-21T04:58:03.122Z,32.82
2019-03-21T04:59:03.091Z,33.62
2019-03-21T05:00:03.819Z,33.41
2019-03-21T05:01:03.068Z,33.43
2019-03-21T05:02:04.038Z,33.33
2019-03-21T05:03:03.059Z,33.53
2019-03-21T05:04:03.539Z,33.43
2019-03-21T05:05:03.027Z,33.12
2019-03-21T05:06:03.010Z,33.03
2019-03-21T05:07:03.002Z,33.33
2019-03-21T05:08:03.004Z,33.23
2019-03-21T05:09:02.994Z,33.23
2019-03-21T05:10:02.963Z,32.93
2019-03-21T05:11:02.957Z,33.03
2019-03-21T05:12:02.945Z,33.03
2019-03-21T05:13:02.952Z,33.43
2019-03-21T05:14:03.560Z,33.21
2019-03-21T05:15:02.910Z,32.73
2019-03-21T05:16:14.044Z,32.73
2019-03-21T05:17:02.889Z,33.51
2019-03-21T05:18:02.896Z,32.73
2019-03-21T05:19:03.556Z,32.82
2019-03-21T05:20:03.567Z,32.73
2019-03-21T05:21:02.854Z,33.12
2019-03-21T05:22:02.837Z,33.31
2019-03-21T05:23:02.827Z,33.31
2019-03-21T05:24:02.842Z,32.81
2019-03-21T05:25:03.537Z,33.23
2019-03-21T05:26:04.040Z,32.91
2019-03-21T05:27:02.779Z,32.73
2019-03-21T05:28:03.535Z,32.81
2019-03-21T05:29:02.799Z,33.41
2019-03-21T05:30:02.743Z,33.12
2019-03-21T05:31:02.741Z,32.93
2019-03-21T05:32:03.894Z,33.31
2019-03-21T05:33:02.708Z,32.81
2019-03-21T05:34:02.722Z,32.91
2019-03-21T05:35:02.693Z,33.21
2019-03-21T05:36:02.701Z,33.21
2019-03-21T05:37:02.671Z,33.21
2019-03-21T05:38:03.540Z,33.23
2019-03-21T05:39:03.069Z,33.21
2019-03-21T05:40:02.636Z,33.11
2019-03-21T05:41:02.625Z,33.12
2019-03-21T05:42:02.614Z,32.81
2019-03-21T05:43:03.540Z,33.33
2019-03-21T05:44:03.073Z,33.51
2019-03-21T05:45:02.586Z,32.81
2019-03-21T05:46:02.575Z,33.21
2019-03-21T05:47:03.543Z,33.01
2019-03-21T05:48:02.548Z,32.91
2019-03-21T05:49:02.555Z,33.01
2019-03-21T05:50:02.527Z,33.01
2019-03-21T05:51:02.513Z,32.81
2019-03-21T05:52:02.526Z,32.82
2019-03-21T05:53:02.496Z,33.11
2019-03-21T05:54:02.576Z,32.81
2019-03-21T05:55:03.038Z,33.11
2019-03-21T05:56:02.462Z,32.81
2019-03-21T05:57:02.448Z,32.71
2019-03-21T05:58:02.440Z,33.21
2019-03-21T05:59:02.455Z,33.03
2019-03-21T06:00:02.417Z,33.41
2019-03-21T06:01:02.410Z,33.31
2019-03-21T06:02:03.044Z,33.21
2019-03-21T06:03:02.384Z,33.41
2019-03-21T06:04:02.394Z,33.31
2019-03-21T06:05:02.359Z,33.11
2019-03-21T06:06:02.352Z,33.11
2019-03-21T06:07:02.342Z,33.31
2019-03-21T06:08:02.328Z,33.11
2019-03-21T06:09:02.332Z,33.11
2019-03-21T06:10:02.306Z,32.91
2019-03-21T06:11:02.297Z,33.31
2019-03-21T06:12:02.285Z,33.11
2019-03-21T06:13:02.272Z,33.31
2019-03-21T06:14:02.300Z,33.21
2019-03-21T06:15:02.252Z,33.11
2019-03-21T06:16:02.240Z,33.11
2019-03-21T06:17:02.230Z,33.41
2019-03-21T06:18:02.232Z,33.61
2019-03-21T06:19:03.067Z,33.51
2019-03-21T06:20:04.010Z,33.11
2019-03-21T06:21:02.184Z,33.21
2019-03-21T06:22:02.173Z,33.11
2019-03-21T06:23:02.161Z,33.11
2019-03-21T06:24:02.153Z,33.41
2019-03-21T06:25:02.169Z,33.41
2019-03-21T06:26:02.134Z,33.01
2019-03-21T06:27:02.121Z,33.51
2019-03-21T06:28:02.107Z,33.61
2019-03-21T06:29:02.098Z,33.01
2019-03-21T06:30:02.587Z,33.01
2019-03-21T06:31:03.052Z,33.21
2019-03-21T06:32:02.067Z,33.41
2019-03-21T06:33:02.054Z,33.41
2019-03-21T06:34:02.046Z,32.71
2019-03-21T06:35:02.087Z,33.51
2019-03-21T06:36:02.546Z,33.41
2019-03-21T06:37:02.008Z,33.41
2019-03-21T06:38:01.998Z,33.41
2019-03-21T06:39:01.998Z,33.51
2019-03-21T06:40:02.056Z,33.41
2019-03-21T06:41:01.969Z,33.41
2019-03-21T06:42:01.953Z,33.41
2019-03-21T06:43:02.546Z,33.41
2019-03-21T06:44:01.952Z,33.31
2019-03-21T06:45:01.934Z,33.51
2019-03-21T06:46:01.908Z,33.41
2019-03-21T06:47:01.906Z,33.41
2019-03-21T06:48:02.546Z,33.51
2019-03-21T06:49:01.876Z,33.41
2019-03-21T06:50:02.067Z,32.71
2019-03-21T06:51:01.865Z,33.41
2019-03-21T06:52:01.842Z,33.41
2019-03-21T06:53:03.392Z,33.41
2019-03-21T06:54:01.822Z,33.21
2019-03-21T06:55:01.827Z,33.41
2019-03-21T06:56:01.797Z,33.51
2019-03-21T06:57:02.668Z,33.61
2019-03-21T06:58:02.548Z,33.11
2019-03-21T06:59:01.766Z,32.81
2019-03-21T07:00:01.769Z,33.11
2019-03-21T07:01:01.742Z,33.41
2019-03-21T07:02:01.731Z,33.41
2019-03-21T07:03:02.542Z,33.01
2019-03-21T07:04:06.953Z,33.51
2019-03-21T07:05:01.710Z,33.41
2019-03-21T07:06:01.686Z,33.51
2019-03-21T07:07:08.073Z,32.81
2019-03-21T07:08:01.666Z,33.01
2019-03-21T07:09:01.657Z,33.51
2019-03-21T07:10:01.671Z,33.91
2019-03-21T07:11:01.629Z,32.71
2019-03-21T07:12:02.548Z,33.11
2019-03-21T07:13:01.609Z,33.01
2019-03-21T07:14:01.630Z,33.81
2019-03-21T07:15:04.456Z,33.41
2019-03-21T07:16:02.063Z,32.91
2019-03-21T07:17:01.569Z,32.81
2019-03-21T07:18:02.564Z,33.11
2019-03-21T07:19:01.544Z,33.01
2019-03-21T07:20:02.059Z,33.31
2019-03-21T07:21:01.536Z,33.41
2019-03-21T07:22:01.514Z,33.21
2019-03-21T07:23:01.500Z,32.82
2019-03-21T07:24:01.491Z,32.91
2019-03-21T07:25:01.486Z,33.21
2019-03-21T07:26:01.476Z,33.31
2019-03-21T07:27:02.061Z,33.31
2019-03-21T07:28:01.444Z,33.11
2019-03-21T07:29:01.435Z,32.23
2019-03-21T07:30:01.434Z,32.82
2019-03-21T07:31:01.423Z,32.93
2019-03-21T07:32:02.057Z,32.32
2019-03-21T07:33:01.388Z,33.43
2019-03-21T07:34:01.377Z,33.33
2019-03-21T07:35:01.386Z,32.93
2019-03-21T07:36:01.366Z,34.03
2019-03-21T07:37:01.346Z,33.91
2019-03-21T07:38:01.340Z,34.61
2019-03-21T07:39:02.048Z,33.81
2019-03-21T07:40:01.326Z,34.21
2019-03-21T07:41:01.317Z,34.11
2019-03-21T07:42:01.501Z,34.01
2019-03-21T07:43:01.279Z,33.81
2019-03-21T07:44:01.268Z,35.21
2019-03-21T07:45:02.059Z,35.10
2019-03-21T07:46:01.585Z,34.69
2019-03-21T07:47:12.329Z,34.80
2019-03-21T07:48:01.221Z,34.99
2019-03-21T07:49:02.052Z,34.58
2019-03-21T07:50:01.222Z,35.18
2019-03-21T07:51:01.197Z,34.98
2019-03-21T07:52:01.181Z,34.98
2019-03-21T07:53:01.170Z,34.98
2019-03-21T07:54:01.165Z,34.48
2019-03-21T07:55:02.053Z,35.16
2019-03-21T07:56:01.148Z,34.36
2019-03-21T07:57:01.121Z,34.76
2019-03-21T07:58:01.121Z,35.06
2019-03-21T07:59:01.107Z,34.66
2019-03-21T08:00:01.106Z,34.66
2019-03-21T08:01:01.569Z,34.56
2019-03-21T08:02:01.071Z,35.06
2019-03-21T08:03:01.058Z,34.94
2019-03-21T08:04:02.968Z,34.56
2019-03-21T08:05:01.059Z,34.26
2019-03-21T08:06:01.036Z,34.94
2019-03-21T08:07:01.060Z,34.56
2019-03-21T08:08:01.550Z,34.44
2019-03-21T08:09:00.994Z,34.64
2019-03-21T08:10:00.988Z,34.44
2019-03-21T08:11:00.974Z,34.25
2019-03-21T08:12:00.976Z,33.65
2019-03-21T08:13:01.550Z,34.26
2019-03-21T08:14:00.941Z,33.75
2019-03-21T08:15:00.929Z,35.14
2019-03-21T08:16:00.939Z,34.55
2019-03-21T08:17:00.919Z,34.34
2019-03-21T08:18:01.550Z,34.64
2019-03-21T08:19:00.891Z,34.05
2019-03-21T08:20:00.878Z,33.54
2019-03-21T08:21:00.866Z,33.96
2019-03-21T08:22:00.872Z,33.84
2019-03-21T08:23:01.555Z,34.55
2019-03-21T08:24:00.839Z,33.75
2019-03-21T08:25:00.834Z,33.54
2019-03-21T08:26:00.811Z,34.44
2019-03-21T08:27:00.809Z,34.75
2019-03-21T08:28:01.559Z,34.44
2019-03-21T08:29:00.778Z,33.84
2019-03-21T08:30:00.792Z,33.65
2019-03-21T08:31:00.760Z,33.84
2019-03-21T08:32:00.752Z,33.95
2019-03-21T08:33:02.943Z,33.84
2019-03-21T08:34:00.726Z,35.35
2019-03-21T08:35:00.752Z,35.24
2019-03-21T08:36:00.706Z,36.15
2019-03-21T08:37:00.702Z,36.54
2019-03-21T08:38:00.679Z,35.64
2019-03-21T08:39:01.583Z,35.74
2019-03-21T08:40:00.663Z,35.13
2019-03-21T08:41:01.575Z,34.13
2019-03-21T08:42:00.748Z,34.53
2019-03-21T08:43:01.553Z,33.73
2019-03-21T08:44:00.619Z,33.45
2019-03-21T08:45:00.605Z,33.84
2019-03-21T08:46:00.604Z,33.53
2019-03-21T08:47:00.631Z,33.95
2019-03-21T08:48:00.572Z,33.04
2019-03-21T08:49:00.573Z,34.14
2019-03-21T08:50:01.052Z,34.05
2019-03-21T08:51:08.280Z,33.54
2019-03-21T08:52:00.546Z,33.65
2019-03-21T08:53:00.531Z,33.25
2019-03-21T08:54:01.051Z,33.35
2019-03-21T08:55:00.551Z,33.06
2019-03-21T08:56:01.050Z,33.95
2019-03-21T08:57:00.579Z,33.04
2019-03-21T08:58:00.471Z,34.26
2019-03-21T08:59:01.055Z,32.75
2019-03-21T09:00:00.470Z,33.06
2019-03-21T09:01:01.067Z,32.67
2019-03-21T09:02:00.581Z,33.16
2019-03-21T09:03:01.056Z,33.26
2019-03-21T09:04:01.052Z,33.47
2019-03-21T09:05:00.415Z,32.86
2019-03-21T09:06:00.442Z,32.67
2019-03-21T09:07:00.384Z,32.36
2019-03-21T09:08:01.056Z,32.56
2019-03-21T09:09:01.057Z,32.67
2019-03-21T09:10:00.460Z,32.17
2019-03-21T09:11:00.355Z,32.46
2019-03-21T09:12:00.594Z,32.76
2019-03-21T09:13:00.313Z,32.38
2019-03-21T09:14:00.296Z,32.18
2019-03-21T09:15:01.094Z,32.58
2019-03-21T09:16:00.292Z,32.56
2019-03-21T09:17:00.287Z,32.17
2019-03-21T09:18:00.257Z,32.38
2019-03-21T09:19:01.054Z,32.68
2019-03-21T09:20:00.454Z,33.38
2019-03-21T09:21:00.237Z,32.78
2019-03-21T09:22:01.086Z,33.38
2019-03-21T09:23:00.213Z,33.58
2019-03-21T09:24:01.052Z,34.18
2019-03-21T09:25:01.108Z,33.88
2019-03-21T09:26:00.177Z,34.98
2019-03-21T09:27:01.076Z,35.18
2019-03-21T09:28:02.879Z,35.38
2019-03-21T09:29:00.156Z,35.08
2019-03-21T09:30:00.249Z,34.98
2019-03-21T09:31:00.120Z,35.26
2019-03-21T09:32:00.096Z,35.36
2019-03-21T09:33:00.107Z,35.06
2019-03-21T09:34:00.075Z,35.46
2019-03-21T09:35:01.062Z,35.36
2019-03-21T09:36:00.067Z,34.66
2019-03-21T09:37:00.556Z,35.56
2019-03-21T09:38:00.045Z,35.54
2019-03-21T09:39:00.028Z,35.24
2019-03-21T09:40:00.016Z,35.24
2019-03-21T09:41:00.010Z,35.35
2019-03-21T09:41:59.987Z,35.44
2019-03-21T09:42:59.987Z,35.14
2019-03-21T09:44:00.562Z,35.35
2019-03-21T09:45:00.563Z,34.94
2019-03-21T09:45:59.964Z,35.93
2019-03-21T09:46:59.942Z,36.02
2019-03-21T09:47:59.935Z,35.93
2019-03-21T09:48:59.922Z,35.72
2019-03-21T09:50:00.555Z,35.72
2019-03-21T09:50:59.912Z,35.72
2019-03-21T09:52:00.555Z,35.63
2019-03-21T09:52:59.887Z,35.81
2019-03-21T09:54:09.306Z,35.71
2019-03-21T09:54:59.875Z,35.41
2019-03-21T09:56:01.240Z,35.81
2019-03-21T09:57:00.568Z,35.71
2019-03-21T09:57:59.858Z,35.91
2019-03-21T09:58:59.810Z,36.51
2019-03-21T09:59:59.800Z,36.21
2019-03-21T10:00:59.787Z,36.11
2019-03-21T10:02:00.584Z,36.31
2019-03-21T10:03:00.080Z,36.11
2019-03-21T10:03:59.794Z,35.71
2019-03-21T10:04:59.743Z,35.91
2019-03-21T10:05:59.734Z,35.91
2019-03-21T10:07:00.557Z,36.11
2019-03-21T10:07:59.819Z,36.21
2019-03-21T10:08:59.725Z,36.49
2019-03-21T10:09:59.694Z,35.59
2019-03-21T10:10:59.685Z,36.79
2019-03-21T10:11:59.680Z,35.99
2019-03-21T10:12:59.666Z,35.89
2019-03-21T10:14:00.071Z,36.19
2019-03-21T10:14:59.636Z,35.89
2019-03-21T10:16:00.562Z,36.19
2019-03-21T10:16:59.626Z,35.79
2019-03-21T10:18:00.557Z,36.09
2019-03-21T10:19:00.074Z,35.89
2019-03-21T10:19:59.596Z,35.49
2019-03-21T10:20:59.613Z,35.68
2019-03-21T10:21:59.586Z,35.68
2019-03-21T10:22:59.547Z,35.49
2019-03-21T10:23:59.551Z,35.77
2019-03-21T10:24:59.560Z,36.27
2019-03-21T10:25:59.520Z,36.57
2019-03-21T10:26:59.514Z,37.47
2019-03-21T10:27:59.492Z,37.97
2019-03-21T10:28:59.489Z,37.57
2019-03-21T10:29:59.474Z,37.37
2019-03-21T10:30:59.462Z,37.87
2019-03-21T10:31:59.494Z,37.97
2019-03-21T10:32:59.450Z,37.55
2019-03-21T10:33:59.442Z,37.27
2019-03-21T10:35:00.067Z,37.57
2019-03-21T10:35:59.431Z,37.77
2019-03-21T10:36:59.400Z,37.47
2019-03-21T10:37:59.393Z,37.77
2019-03-21T10:38:59.373Z,37.35
2019-03-21T10:39:59.367Z,37.95
2019-03-21T10:40:59.356Z,37.47
2019-03-21T10:41:59.343Z,37.45
2019-03-21T10:42:59.348Z,37.55
2019-03-21T10:43:59.315Z,37.85
2019-03-21T10:44:59.354Z,37.65
2019-03-21T10:46:00.062Z,37.55
2019-03-21T10:47:00.068Z,37.95
2019-03-21T10:47:59.282Z,37.95
2019-03-21T10:48:59.293Z,38.15
2019-03-21T10:49:59.266Z,38.15
2019-03-21T10:50:59.240Z,38.35
2019-03-21T10:52:00.071Z,37.75
2019-03-21T10:53:00.074Z,38.03
2019-03-21T10:53:59.210Z,37.75
2019-03-21T10:54:59.578Z,37.75
2019-03-21T10:56:00.057Z,38.13
2019-03-21T10:57:00.084Z,37.93
2019-03-21T10:58:00.097Z,37.85
2019-03-21T10:59:00.065Z,38.03
2019-03-21T11:00:01.568Z,37.75
2019-03-21T11:01:00.063Z,37.93
2019-03-21T11:02:07.265Z,37.93
2019-03-21T11:02:59.113Z,37.93
2019-03-21T11:03:59.123Z,38.73
2019-03-21T11:04:59.088Z,38.53
2019-03-21T11:05:59.075Z,37.93
2019-03-21T11:06:59.058Z,37.83
2019-03-21T11:07:59.060Z,37.83
2019-03-21T11:08:59.039Z,37.73
2019-03-21T11:09:59.044Z,38.03
2019-03-21T11:10:59.611Z,37.83
2019-03-21T11:11:59.693Z,38.01
2019-03-21T11:12:59.003Z,38.01
2019-03-21T11:13:59.001Z,38.43
2019-03-21T11:14:59.083Z,37.81
2019-03-21T11:15:59.579Z,38.01
2019-03-21T11:16:58.944Z,38.31
2019-03-21T11:17:59.588Z,38.51
2019-03-21T11:18:58.923Z,38.21
2019-03-21T11:19:58.922Z,38.11
2019-03-21T11:20:58.906Z,38.21
2019-03-21T11:22:06.395Z,38.41
2019-03-21T11:22:58.886Z,38.21
2019-03-21T11:23:58.869Z,38.51
2019-03-21T11:24:58.871Z,38.31
2019-03-21T11:25:59.563Z,38.61
2019-03-21T11:26:58.864Z,38.51
2019-03-21T11:27:58.853Z,38.31
2019-03-21T11:28:58.817Z,37.81
2019-03-21T11:29:59.121Z,38.61
2019-03-21T11:30:58.791Z,37.71
2019-03-21T11:31:59.621Z,37.71
2019-03-21T11:32:59.589Z,36.42
2019-03-21T11:33:59.574Z,36.02
2019-03-21T11:34:58.793Z,36.52
2019-03-21T11:35:58.738Z,36.92
2019-03-21T11:36:58.726Z,36.52
2019-03-21T11:37:59.565Z,36.82
2019-03-21T11:38:59.610Z,36.72
2019-03-21T11:39:58.714Z,36.22
2019-03-21T11:40:58.747Z,36.42
2019-03-21T11:41:58.674Z,35.63
2019-03-21T11:42:58.783Z,35.42
2019-03-21T11:43:59.596Z,34.03
2019-03-21T11:44:58.652Z,33.83
2019-03-21T11:45:58.782Z,33.14
2019-03-21T11:46:58.619Z,32.84
2019-03-21T11:48:00.140Z,32.95
2019-03-21T11:48:59.585Z,33.15
2019-03-21T11:49:59.076Z,33.25
2019-03-21T11:50:59.581Z,32.75
2019-03-21T11:51:58.560Z,32.06
2019-03-21T11:52:58.552Z,32.35
2019-03-21T11:53:58.550Z,31.87
2019-03-21T11:54:58.575Z,31.76
2019-03-21T11:55:59.064Z,32.56
2019-03-21T11:56:59.069Z,32.37
2019-03-21T11:57:58.491Z,32.37
2019-03-21T11:58:59.074Z,31.87
2019-03-21T11:59:58.481Z,31.57
2019-03-21T12:00:58.461Z,31.37
2019-03-21T12:01:58.445Z,32.17
2019-03-21T12:02:58.455Z,31.67
2019-03-21T12:03:58.427Z,31.27
2019-03-21T12:04:58.578Z,31.67
2019-03-21T12:05:58.414Z,32.27
2019-03-21T12:06:59.065Z,31.97
2019-03-21T12:07:58.382Z,31.87
2019-03-21T12:08:58.371Z,31.87
2019-03-21T12:09:58.367Z,31.77
2019-03-21T12:10:58.349Z,31.67
2019-03-21T12:11:59.065Z,31.67
2019-03-21T12:12:58.326Z,31.49
2019-03-21T12:13:58.316Z,30.88
2019-03-21T12:14:58.317Z,30.49
2019-03-21T12:15:58.300Z,31.27
2019-03-21T12:16:58.288Z,30.68
2019-03-21T12:17:58.274Z,30.58
2019-03-21T12:18:58.259Z,30.58
2019-03-21T12:19:58.261Z,31.77
2019-03-21T12:20:58.246Z,31.37
2019-03-21T12:21:58.228Z,30.69
2019-03-21T12:22:58.215Z,31.77
2019-03-21T12:23:58.216Z,31.49
2019-03-21T12:24:59.079Z,32.09
2019-03-21T12:25:58.580Z,31.57
2019-03-21T12:26:59.072Z,31.49
2019-03-21T12:28:01.344Z,31.49
2019-03-21T12:28:58.147Z,30.79
2019-03-21T12:29:58.154Z,30.59
2019-03-21T12:30:58.154Z,31.09
2019-03-21T12:31:58.115Z,30.69
2019-03-21T12:32:58.104Z,30.89
2019-03-21T12:33:59.265Z,31.09
2019-03-21T12:34:58.102Z,30.69
2019-03-21T12:35:58.082Z,30.69
2019-03-21T12:36:58.059Z,30.79
2019-03-21T12:37:58.049Z,30.79
2019-03-21T12:38:58.567Z,31.09
2019-03-21T12:39:58.573Z,30.48
2019-03-21T12:40:58.044Z,30.69
2019-03-21T12:41:58.004Z,30.89
2019-03-21T12:42:57.997Z,31.29
2019-03-21T12:43:57.984Z,31.09
2019-03-21T12:44:57.975Z,30.59
2019-03-21T12:45:58.103Z,30.58
2019-03-21T12:46:57.952Z,30.59
2019-03-21T12:47:57.941Z,30.69
2019-03-21T12:48:58.568Z,30.29
2019-03-21T12:49:57.918Z,30.58
2019-03-21T12:50:57.921Z,30.89
2019-03-21T12:51:58.567Z,30.79